sensor_id;sensor_type;location;lat;lon;timestamp;P1;durP1;ratioP1;P2;durP2;ratioP2
32130;SDS011;18639;50.716;7.086;2023-05-10T00:01:50;0.65;;;0.40;;
32130;SDS011;18639;50.716;7.086;2023-05-10T00:04:15;0.40;;;0.40;;
32130;SDS011;18639;50.716;7.086;2023-05-10T00:06:40;0.63;;;0.63;;
32130;SDS011;18639;50.716;7.086;2023-05-10T00:09:06;0.57;;;0.50;;
32130;SDS011;18639;50.716;7.086;2023-05-10T00:11:31;2.38;;;0.50;;
32130;SDS011;18639;50.716;7.086;2023-05-10T00:13:56;0.30;;;0.30;;
32130;SDS011;18639;50.716;7.086;2023-05-10T00:16:22;0.38;;;0.38;;
32130;SDS011;18639;50.716;7.086;2023-05-10T00:18:47;0.30;;;0.30;;
32130;SDS011;18639;50.716;7.086;2023-05-10T00:21:12;0.70;;;0.52;;
32130;SDS011;18639;50.716;7.086;2023-05-10T00:23:38;0.65;;;0.30;;
32130;SDS011;18639;50.716;7.086;2023-05-10T00:26:03;0.50;;;0.50;;
32130;SDS011;18639;50.716;7.086;2023-05-10T00:28:28;1.40;;;0.40;;
32130;SDS011;18639;50.716;7.086;2023-05-10T00:30:54;0.52;;;0.40;;
32130;SDS011;18639;50.716;7.086;2023-05-10T00:33:20;2.63;;;0.40;;
32130;SDS011;18639;50.716;7.086;2023-05-10T00:35:46;0.50;;;0.38;;
32130;SDS011;18639;50.716;7.086;2023-05-10T00:38:11;0.30;;;0.30;;
32130;SDS011;18639;50.716;7.086;2023-05-10T00:40:36;0.32;;;0.32;;
32130;SDS011;18639;50.716;7.086;2023-05-10T00:43:02;0.52;;;0.43;;
32130;SDS011;18639;50.716;7.086;2023-05-10T00:45:28;0.40;;;0.40;;
32130;SDS011;18639;50.716;7.086;2023-05-10T00:47:54;0.30;;;0.30;;
32130;SDS011;18639;50.716;7.086;2023-05-10T00:50:21;0.50;;;0.50;;
32130;SDS011;18639;50.716;7.086;2023-05-10T00:52:47;0.40;;;0.40;;
32130;SDS011;18639;50.716;7.086;2023-05-10T00:55:13;0.30;;;0.30;;
32130;SDS011;18639;50.716;7.086;2023-05-10T00:57:38;0.40;;;0.40;;
32130;SDS011;18639;50.716;7.086;2023-05-10T01:00:04;0.40;;;0.40;;
32130;SDS011;18639;50.716;7.086;2023-05-10T01:02:30;0.35;;;0.30;;
32130;SDS011;18639;50.716;7.086;2023-05-10T01:04:56;0.95;;;0.40;;
32130;SDS011;18639;50.716;7.086;2023-05-10T01:07:21;0.30;;;0.30;;
32130;SDS011;18639;50.716;7.086;2023-05-10T01:09:47;0.82;;;0.50;;
32130;SDS011;18639;50.716;7.086;2023-05-10T01:12:12;0.40;;;0.32;;
32130;SDS011;18639;50.716;7.086;2023-05-10T01:14:38;7.45;;;0.40;;
32130;SDS011;18639;50.716;7.086;2023-05-10T01:17:04;0.30;;;0.30;;
32130;SDS011;18639;50.716;7.086;2023-05-10T01:19:31;0.35;;;0.35;;
32130;SDS011;18639;50.716;7.086;2023-05-10T01:24:51;0.40;;;0.32;;
32130;SDS011;18639;50.716;7.086;2023-05-10T01:30:01;0.30;;;0.30;;
32130;SDS011;18639;50.716;7.086;2023-05-10T01:32:55;0.43;;;0.30;;
32130;SDS011;18639;50.716;7.086;2023-05-10T01:43:55;0.43;;;0.40;;
32130;SDS011;18639;50.716;7.086;2023-05-10T01:46:27;0.75;;;0.40;;
32130;SDS011;18639;50.716;7.086;2023-05-10T01:48:55;0.40;;;0.40;;
32130;SDS011;18639;50.716;7.086;2023-05-10T01:51:25;0.70;;;0.40;;
32130;SDS011;18639;50.716;7.086;2023-05-10T01:53:58;1.95;;;0.52;;
32130;SDS011;18639;50.716;7.086;2023-05-10T01:56:28;0.65;;;0.40;;
32130;SDS011;18639;50.716;7.086;2023-05-10T01:58:55;0.60;;;0.40;;
32130;SDS011;18639;50.716;7.086;2023-05-10T02:01:22;0.60;;;0.40;;
32130;SDS011;18639;50.716;7.086;2023-05-10T02:03:49;0.98;;;0.40;;
32130;SDS011;18639;50.716;7.086;2023-05-10T02:06:16;0.40;;;0.40;;
32130;SDS011;18639;50.716;7.086;2023-05-10T02:08:45;0.40;;;0.40;;
32130;SDS011;18639;50.716;7.086;2023-05-10T02:11:12;0.68;;;0.45;;
32130;SDS011;18639;50.716;7.086;2023-05-10T02:13:38;0.52;;;0.40;;
32130;SDS011;18639;50.716;7.086;2023-05-10T02:16:05;0.57;;;0.38;;
32130;SDS011;18639;50.716;7.086;2023-05-10T02:18:32;0.50;;;0.45;;
32130;SDS011;18639;50.716;7.086;2023-05-10T02:20:59;0.40;;;0.40;;
32130;SDS011;18639;50.716;7.086;2023-05-10T02:23:27;0.63;;;0.40;;
32130;SDS011;18639;50.716;7.086;2023-05-10T02:25:53;0.90;;;0.40;;
32130;SDS011;18639;50.716;7.086;2023-05-10T02:28:21;0.30;;;0.30;;
32130;SDS011;18639;50.716;7.086;2023-05-10T02:30:49;1.05;;;0.75;;
32130;SDS011;18639;50.716;7.086;2023-05-10T02:33:16;0.43;;;0.30;;
32130;SDS011;18639;50.716;7.086;2023-05-10T02:35:42;1.10;;;0.47;;
32130;SDS011;18639;50.716;7.086;2023-05-10T02:38:08;0.60;;;0.50;;
32130;SDS011;18639;50.716;7.086;2023-05-10T02:40:36;0.30;;;0.30;;
32130;SDS011;18639;50.716;7.086;2023-05-10T02:43:02;0.38;;;0.38;;
32130;SDS011;18639;50.716;7.086;2023-05-10T02:45:31;0.73;;;0.52;;
32130;SDS011;18639;50.716;7.086;2023-05-10T02:47:57;0.45;;;0.30;;
32130;SDS011;18639;50.716;7.086;2023-05-10T02:50:25;0.45;;;0.45;;
32130;SDS011;18639;50.716;7.086;2023-05-10T02:52:54;0.38;;;0.32;;
32130;SDS011;18639;50.716;7.086;2023-05-10T02:55:25;0.40;;;0.30;;
32130;SDS011;18639;50.716;7.086;2023-05-10T02:57:58;0.28;;;0.28;;
32130;SDS011;18639;50.716;7.086;2023-05-10T03:00:26;0.77;;;0.40;;
32130;SDS011;18639;50.716;7.086;2023-05-10T03:02:51;0.50;;;0.50;;
32130;SDS011;18639;50.716;7.086;2023-05-10T03:05:17;0.50;;;0.40;;
32130;SDS011;18639;50.716;7.086;2023-05-10T03:07:42;0.57;;;0.40;;
32130;SDS011;18639;50.716;7.086;2023-05-10T03:10:09;0.80;;;0.47;;
32130;SDS011;18639;50.716;7.086;2023-05-10T03:12:46;0.60;;;0.50;;
32130;SDS011;18639;50.716;7.086;2023-05-10T03:15:22;0.55;;;0.40;;
32130;SDS011;18639;50.716;7.086;2023-05-10T03:18:01;0.70;;;0.50;;
32130;SDS011;18639;50.716;7.086;2023-05-10T03:20:33;1.48;;;0.70;;
32130;SDS011;18639;50.716;7.086;2023-05-10T03:23:07;0.68;;;0.55;;
32130;SDS011;18639;50.716;7.086;2023-05-10T03:25:38;0.55;;;0.50;;
32130;SDS011;18639;50.716;7.086;2023-05-10T03:28:06;1.73;;;0.80;;
32130;SDS011;18639;50.716;7.086;2023-05-10T03:30:32;0.70;;;0.70;;
32130;SDS011;18639;50.716;7.086;2023-05-10T03:32:58;0.85;;;0.50;;
32130;SDS011;18639;50.716;7.086;2023-05-10T03:35:29;1.05;;;0.63;;
32130;SDS011;18639;50.716;7.086;2023-05-10T03:37:54;1.65;;;0.65;;
32130;SDS011;18639;50.716;7.086;2023-05-10T03:40:20;1.05;;;0.57;;
32130;SDS011;18639;50.716;7.086;2023-05-10T03:42:45;0.90;;;0.70;;
32130;SDS011;18639;50.716;7.086;2023-05-10T03:45:10;1.05;;;0.70;;
32130;SDS011;18639;50.716;7.086;2023-05-10T03:47:35;1.30;;;0.63;;
32130;SDS011;18639;50.716;7.086;2023-05-10T03:50:01;1.00;;;0.60;;
32130;SDS011;18639;50.716;7.086;2023-05-10T03:52:27;1.23;;;0.63;;
32130;SDS011;18639;50.716;7.086;2023-05-10T03:54:52;2.25;;;1.00;;
32130;SDS011;18639;50.716;7.086;2023-05-10T03:57:17;2.17;;;1.15;;
32130;SDS011;18639;50.716;7.086;2023-05-10T03:59:43;2.47;;;1.02;;
32130;SDS011;18639;50.716;7.086;2023-05-10T04:02:08;3.55;;;1.05;;
32130;SDS011;18639;50.716;7.086;2023-05-10T04:04:33;2.38;;;1.02;;
32130;SDS011;18639;50.716;7.086;2023-05-10T04:06:59;2.72;;;1.15;;
32130;SDS011;18639;50.716;7.086;2023-05-10T04:09:24;2.80;;;1.27;;
32130;SDS011;18639;50.716;7.086;2023-05-10T04:11:50;2.22;;;1.30;;
32130;SDS011;18639;50.716;7.086;2023-05-10T04:14:15;2.22;;;0.90;;
32130;SDS011;18639;50.716;7.086;2023-05-10T04:16:41;3.83;;;1.35;;
32130;SDS011;18639;50.716;7.086;2023-05-10T04:19:06;3.47;;;1.55;;
32130;SDS011;18639;50.716;7.086;2023-05-10T04:21:32;4.95;;;1.60;;
32130;SDS011;18639;50.716;7.086;2023-05-10T04:23:57;4.50;;;1.50;;
32130;SDS011;18639;50.716;7.086;2023-05-10T04:26:23;5.25;;;1.60;;
32130;SDS011;18639;50.716;7.086;2023-05-10T04:28:49;3.28;;;1.30;;
32130;SDS011;18639;50.716;7.086;2023-05-10T04:31:15;2.72;;;1.42;;
32130;SDS011;18639;50.716;7.086;2023-05-10T04:33:40;3.83;;;1.35;;
32130;SDS011;18639;50.716;7.086;2023-05-10T04:36:05;4.07;;;1.70;;
32130;SDS011;18639;50.716;7.086;2023-05-10T04:38:31;4.53;;;1.75;;
32130;SDS011;18639;50.716;7.086;2023-05-10T04:41:06;4.75;;;1.70;;
32130;SDS011;18639;50.716;7.086;2023-05-10T04:43:32;5.15;;;1.92;;
32130;SDS011;18639;50.716;7.086;2023-05-10T04:45:58;5.45;;;1.75;;
32130;SDS011;18639;50.716;7.086;2023-05-10T04:48:24;7.78;;;2.38;;
32130;SDS011;18639;50.716;7.086;2023-05-10T04:50:49;3.08;;;1.75;;
32130;SDS011;18639;50.716;7.086;2023-05-10T04:53:14;4.38;;;1.65;;
32130;SDS011;18639;50.716;7.086;2023-05-10T04:55:39;5.88;;;1.77;;
32130;SDS011;18639;50.716;7.086;2023-05-10T04:58:05;4.88;;;1.88;;
32130;SDS011;18639;50.716;7.086;2023-05-10T05:00:30;3.28;;;1.60;;
32130;SDS011;18639;50.716;7.086;2023-05-10T05:02:55;4.88;;;1.63;;
32130;SDS011;18639;50.716;7.086;2023-05-10T05:05:21;4.55;;;1.48;;
32130;SDS011;18639;50.716;7.086;2023-05-10T05:07:46;3.40;;;1.75;;
32130;SDS011;18639;50.716;7.086;2023-05-10T05:10:11;5.50;;;1.77;;
32130;SDS011;18639;50.716;7.086;2023-05-10T05:12:37;5.63;;;2.00;;
32130;SDS011;18639;50.716;7.086;2023-05-10T05:15:02;6.97;;;1.90;;
32130;SDS011;18639;50.716;7.086;2023-05-10T05:17:29;3.60;;;1.83;;
32130;SDS011;18639;50.716;7.086;2023-05-10T05:19:55;5.80;;;1.80;;
32130;SDS011;18639;50.716;7.086;2023-05-10T05:22:20;3.10;;;1.45;;
32130;SDS011;18639;50.716;7.086;2023-05-10T05:24:52;4.65;;;1.70;;
32130;SDS011;18639;50.716;7.086;2023-05-10T05:27:17;4.00;;;1.80;;
32130;SDS011;18639;50.716;7.086;2023-05-10T05:29:42;3.92;;;1.77;;
32130;SDS011;18639;50.716;7.086;2023-05-10T05:32:08;4.55;;;1.90;;
32130;SDS011;18639;50.716;7.086;2023-05-10T05:34:33;5.55;;;1.90;;
32130;SDS011;18639;50.716;7.086;2023-05-10T05:36:59;5.13;;;2.38;;
32130;SDS011;18639;50.716;7.086;2023-05-10T05:39:24;3.50;;;1.65;;
32130;SDS011;18639;50.716;7.086;2023-05-10T05:41:49;3.33;;;1.33;;
32130;SDS011;18639;50.716;7.086;2023-05-10T05:44:14;2.63;;;1.08;;
32130;SDS011;18639;50.716;7.086;2023-05-10T05:46:40;3.70;;;1.73;;
32130;SDS011;18639;50.716;7.086;2023-05-10T05:49:05;3.85;;;1.73;;
32130;SDS011;18639;50.716;7.086;2023-05-10T05:51:30;5.97;;;2.22;;
32130;SDS011;18639;50.716;7.086;2023-05-10T05:53:56;4.22;;;1.52;;
32130;SDS011;18639;50.716;7.086;2023-05-10T05:56:21;2.55;;;1.38;;
32130;SDS011;18639;50.716;7.086;2023-05-10T05:58:52;4.03;;;1.95;;
32130;SDS011;18639;50.716;7.086;2023-05-10T06:01:17;4.68;;;1.58;;
32130;SDS011;18639;50.716;7.086;2023-05-10T06:03:42;2.33;;;1.00;;
32130;SDS011;18639;50.716;7.086;2023-05-10T06:06:08;6.90;;;1.70;;
32130;SDS011;18639;50.716;7.086;2023-05-10T06:08:33;3.13;;;1.38;;
32130;SDS011;18639;50.716;7.086;2023-05-10T06:10:59;3.67;;;1.50;;
32130;SDS011;18639;50.716;7.086;2023-05-10T06:13:24;3.67;;;1.65;;
32130;SDS011;18639;50.716;7.086;2023-05-10T06:15:53;3.78;;;1.88;;
32130;SDS011;18639;50.716;7.086;2023-05-10T06:18:19;3.80;;;1.55;;
32130;SDS011;18639;50.716;7.086;2023-05-10T06:20:44;4.97;;;1.83;;
32130;SDS011;18639;50.716;7.086;2023-05-10T06:23:09;3.38;;;1.52;;
32130;SDS011;18639;50.716;7.086;2023-05-10T06:25:34;2.63;;;1.27;;
32130;SDS011;18639;50.716;7.086;2023-05-10T06:28:00;3.30;;;1.50;;
32130;SDS011;18639;50.716;7.086;2023-05-10T06:30:25;3.60;;;1.52;;
32130;SDS011;18639;50.716;7.086;2023-05-10T06:32:53;3.50;;;1.48;;
32130;SDS011;18639;50.716;7.086;2023-05-10T06:35:20;3.33;;;1.35;;
32130;SDS011;18639;50.716;7.086;2023-05-10T06:37:45;3.20;;;1.23;;
32130;SDS011;18639;50.716;7.086;2023-05-10T06:40:11;2.72;;;1.40;;
32130;SDS011;18639;50.716;7.086;2023-05-10T06:42:37;2.15;;;1.27;;
32130;SDS011;18639;50.716;7.086;2023-05-10T06:45:02;2.88;;;1.50;;
32130;SDS011;18639;50.716;7.086;2023-05-10T06:47:28;2.53;;;1.15;;
32130;SDS011;18639;50.716;7.086;2023-05-10T06:49:53;2.22;;;0.90;;
32130;SDS011;18639;50.716;7.086;2023-05-10T06:52:19;5.32;;;1.30;;
32130;SDS011;18639;50.716;7.086;2023-05-10T06:54:45;2.13;;;1.20;;
32130;SDS011;18639;50.716;7.086;2023-05-10T06:57:10;4.85;;;1.40;;
32130;SDS011;18639;50.716;7.086;2023-05-10T06:59:35;3.33;;;1.48;;
32130;SDS011;18639;50.716;7.086;2023-05-10T07:02:01;2.15;;;1.25;;
32130;SDS011;18639;50.716;7.086;2023-05-10T07:04:27;3.47;;;1.77;;
32130;SDS011;18639;50.716;7.086;2023-05-10T07:06:52;1.90;;;1.35;;
32130;SDS011;18639;50.716;7.086;2023-05-10T07:09:18;2.72;;;1.35;;
32130;SDS011;18639;50.716;7.086;2023-05-10T07:11:43;3.08;;;1.60;;
32130;SDS011;18639;50.716;7.086;2023-05-10T07:14:08;3.90;;;1.55;;
32130;SDS011;18639;50.716;7.086;2023-05-10T07:16:33;3.53;;;1.73;;
32130;SDS011;18639;50.716;7.086;2023-05-10T07:18:59;3.83;;;1.45;;
32130;SDS011;18639;50.716;7.086;2023-05-10T07:21:24;2.47;;;1.45;;
32130;SDS011;18639;50.716;7.086;2023-05-10T07:23:50;2.42;;;1.30;;
32130;SDS011;18639;50.716;7.086;2023-05-10T07:26:15;3.72;;;1.40;;
32130;SDS011;18639;50.716;7.086;2023-05-10T07:28:40;1.67;;;1.00;;
32130;SDS011;18639;50.716;7.086;2023-05-10T07:31:06;2.17;;;1.17;;
32130;SDS011;18639;50.716;7.086;2023-05-10T07:33:31;1.50;;;1.13;;
32130;SDS011;18639;50.716;7.086;2023-05-10T07:35:57;2.47;;;1.25;;
32130;SDS011;18639;50.716;7.086;2023-05-10T07:38:22;4.03;;;1.90;;
32130;SDS011;18639;50.716;7.086;2023-05-10T07:40:48;3.47;;;1.85;;
32130;SDS011;18639;50.716;7.086;2023-05-10T07:43:13;2.90;;;1.40;;
32130;SDS011;18639;50.716;7.086;2023-05-10T07:45:38;3.00;;;1.10;;
32130;SDS011;18639;50.716;7.086;2023-05-10T07:48:04;2.90;;;1.20;;
32130;SDS011;18639;50.716;7.086;2023-05-10T07:50:29;2.75;;;1.48;;
32130;SDS011;18639;50.716;7.086;2023-05-10T07:52:55;3.42;;;1.20;;
32130;SDS011;18639;50.716;7.086;2023-05-10T07:55:20;3.75;;;1.70;;
32130;SDS011;18639;50.716;7.086;2023-05-10T07:57:46;4.68;;;1.30;;
32130;SDS011;18639;50.716;7.086;2023-05-10T08:00:16;2.50;;;1.30;;
32130;SDS011;18639;50.716;7.086;2023-05-10T08:02:43;2.22;;;1.00;;
32130;SDS011;18639;50.716;7.086;2023-05-10T08:05:08;1.92;;;1.00;;
32130;SDS011;18639;50.716;7.086;2023-05-10T08:07:33;3.63;;;1.35;;
32130;SDS011;18639;50.716;7.086;2023-05-10T08:09:59;1.23;;;0.80;;
32130;SDS011;18639;50.716;7.086;2023-05-10T08:12:25;3.00;;;1.38;;
32130;SDS011;18639;50.716;7.086;2023-05-10T08:14:50;3.65;;;1.15;;
32130;SDS011;18639;50.716;7.086;2023-05-10T08:17:15;1.75;;;1.00;;
32130;SDS011;18639;50.716;7.086;2023-05-10T08:19:41;1.60;;;0.90;;
32130;SDS011;18639;50.716;7.086;2023-05-10T08:22:06;2.33;;;0.88;;
32130;SDS011;18639;50.716;7.086;2023-05-10T08:24:31;1.27;;;0.88;;
32130;SDS011;18639;50.716;7.086;2023-05-10T08:26:57;1.55;;;1.00;;
32130;SDS011;18639;50.716;7.086;2023-05-10T08:29:22;2.47;;;1.00;;
32130;SDS011;18639;50.716;7.086;2023-05-10T08:31:48;1.40;;;0.82;;
32130;SDS011;18639;50.716;7.086;2023-05-10T08:34:13;2.45;;;0.93;;
32130;SDS011;18639;50.716;7.086;2023-05-10T08:36:38;3.45;;;0.95;;
32130;SDS011;18639;50.716;7.086;2023-05-10T08:39:04;1.17;;;0.70;;
32130;SDS011;18639;50.716;7.086;2023-05-10T08:41:29;2.17;;;0.85;;
32130;SDS011;18639;50.716;7.086;2023-05-10T08:43:56;1.70;;;0.80;;
32130;SDS011;18639;50.716;7.086;2023-05-10T08:46:22;2.13;;;0.75;;
32130;SDS011;18639;50.716;7.086;2023-05-10T08:48:49;0.90;;;0.63;;
32130;SDS011;18639;50.716;7.086;2023-05-10T08:51:24;0.82;;;0.68;;
32130;SDS011;18639;50.716;7.086;2023-05-10T08:53:54;4.97;;;0.70;;
32130;SDS011;18639;50.716;7.086;2023-05-10T08:56:20;1.75;;;0.73;;
32130;SDS011;18639;50.716;7.086;2023-05-10T08:58:45;0.98;;;0.60;;
32130;SDS011;18639;50.716;7.086;2023-05-10T09:01:12;0.82;;;0.50;;
32130;SDS011;18639;50.716;7.086;2023-05-10T09:03:38;0.73;;;0.55;;
32130;SDS011;18639;50.716;7.086;2023-05-10T09:06:04;0.45;;;0.40;;
32130;SDS011;18639;50.716;7.086;2023-05-10T09:08:30;0.40;;;0.40;;
32130;SDS011;18639;50.716;7.086;2023-05-10T09:10:56;0.40;;;0.35;;
32130;SDS011;18639;50.716;7.086;2023-05-10T09:13:22;0.80;;;0.40;;
32130;SDS011;18639;50.716;7.086;2023-05-10T09:15:47;0.45;;;0.40;;
32130;SDS011;18639;50.716;7.086;2023-05-10T09:18:13;0.25;;;0.25;;
32130;SDS011;18639;50.716;7.086;2023-05-10T09:20:39;0.88;;;0.65;;
32130;SDS011;18639;50.716;7.086;2023-05-10T09:23:05;0.68;;;0.47;;
32130;SDS011;18639;50.716;7.086;2023-05-10T09:25:30;1.02;;;0.45;;
32130;SDS011;18639;50.716;7.086;2023-05-10T09:27:58;1.23;;;0.60;;
32130;SDS011;18639;50.716;7.086;2023-05-10T09:30:25;0.50;;;0.43;;
32130;SDS011;18639;50.716;7.086;2023-05-10T09:32:52;0.60;;;0.40;;
32130;SDS011;18639;50.716;7.086;2023-05-10T09:35:19;0.63;;;0.43;;
32130;SDS011;18639;50.716;7.086;2023-05-10T09:37:47;0.40;;;0.40;;
32130;SDS011;18639;50.716;7.086;2023-05-10T09:40:21;0.45;;;0.30;;
32130;SDS011;18639;50.716;7.086;2023-05-10T09:43:01;0.70;;;0.38;;
32130;SDS011;18639;50.716;7.086;2023-05-10T09:45:28;1.00;;;0.60;;
32130;SDS011;18639;50.716;7.086;2023-05-10T09:47:56;0.43;;;0.40;;
32130;SDS011;18639;50.716;7.086;2023-05-10T09:50:23;1.27;;;0.70;;
32130;SDS011;18639;50.716;7.086;2023-05-10T09:52:50;1.05;;;0.32;;
32130;SDS011;18639;50.716;7.086;2023-05-10T09:55:21;0.63;;;0.40;;
32130;SDS011;18639;50.716;7.086;2023-05-10T09:57:49;1.00;;;0.40;;
32130;SDS011;18639;50.716;7.086;2023-05-10T10:00:22;0.63;;;0.45;;
32130;SDS011;18639;50.716;7.086;2023-05-10T10:02:54;0.45;;;0.43;;
32130;SDS011;18639;50.716;7.086;2023-05-10T10:05:21;0.75;;;0.60;;
32130;SDS011;18639;50.716;7.086;2023-05-10T10:07:52;0.30;;;0.30;;
32130;SDS011;18639;50.716;7.086;2023-05-10T10:10:18;0.52;;;0.47;;
32130;SDS011;18639;50.716;7.086;2023-05-10T10:12:43;1.05;;;0.55;;
32130;SDS011;18639;50.716;7.086;2023-05-10T10:15:09;0.40;;;0.40;;
32130;SDS011;18639;50.716;7.086;2023-05-10T10:17:35;0.85;;;0.40;;
32130;SDS011;18639;50.716;7.086;2023-05-10T10:20:03;0.82;;;0.57;;
32130;SDS011;18639;50.716;7.086;2023-05-10T10:22:28;1.10;;;0.60;;
32130;SDS011;18639;50.716;7.086;2023-05-10T10:24:54;1.50;;;0.77;;
32130;SDS011;18639;50.716;7.086;2023-05-10T10:33:06;0.43;;;0.40;;
32130;SDS011;18639;50.716;7.086;2023-05-10T10:35:35;0.57;;;0.40;;
32130;SDS011;18639;50.716;7.086;2023-05-10T10:38:01;1.15;;;0.52;;
32130;SDS011;18639;50.716;7.086;2023-05-10T10:40:28;0.88;;;0.60;;
32130;SDS011;18639;50.716;7.086;2023-05-10T10:42:55;1.38;;;0.70;;
32130;SDS011;18639;50.716;7.086;2023-05-10T10:45:21;3.17;;;0.80;;
32130;SDS011;18639;50.716;7.086;2023-05-10T10:47:47;1.98;;;0.82;;
32130;SDS011;18639;50.716;7.086;2023-05-10T10:50:13;1.58;;;0.88;;
32130;SDS011;18639;50.716;7.086;2023-05-10T10:52:39;1.30;;;0.73;;
32130;SDS011;18639;50.716;7.086;2023-05-10T10:55:10;1.10;;;0.73;;
32130;SDS011;18639;50.716;7.086;2023-05-10T11:03:12;0.73;;;0.55;;
32130;SDS011;18639;50.716;7.086;2023-05-10T11:05:47;0.40;;;0.40;;
32130;SDS011;18639;50.716;7.086;2023-05-10T11:08:14;0.65;;;0.47;;
32130;SDS011;18639;50.716;7.086;2023-05-10T11:13:28;0.63;;;0.45;;
32130;SDS011;18639;50.716;7.086;2023-05-10T11:16:15;0.60;;;0.57;;
32130;SDS011;18639;50.716;7.086;2023-05-10T11:18:54;0.45;;;0.40;;
32130;SDS011;18639;50.716;7.086;2023-05-10T11:21:23;0.52;;;0.30;;
32130;SDS011;18639;50.716;7.086;2023-05-10T11:23:49;0.68;;;0.68;;
32130;SDS011;18639;50.716;7.086;2023-05-10T11:26:16;0.38;;;0.38;;
32130;SDS011;18639;50.716;7.086;2023-05-10T11:28:43;6.20;;;0.55;;
32130;SDS011;18639;50.716;7.086;2023-05-10T11:31:20;0.40;;;0.40;;
32130;SDS011;18639;50.716;7.086;2023-05-10T11:33:53;0.43;;;0.43;;
32130;SDS011;18639;50.716;7.086;2023-05-10T11:36:29;0.68;;;0.43;;
32130;SDS011;18639;50.716;7.086;2023-05-10T11:38:58;0.30;;;0.30;;
32130;SDS011;18639;50.716;7.086;2023-05-10T11:41:24;0.55;;;0.40;;
32130;SDS011;18639;50.716;7.086;2023-05-10T11:43:54;0.52;;;0.45;;
32130;SDS011;18639;50.716;7.086;2023-05-10T11:46:21;0.30;;;0.30;;
32130;SDS011;18639;50.716;7.086;2023-05-10T11:48:51;0.88;;;0.40;;
32130;SDS011;18639;50.716;7.086;2023-05-10T11:51:21;0.47;;;0.32;;
32130;SDS011;18639;50.716;7.086;2023-05-10T11:53:48;0.50;;;0.40;;
32130;SDS011;18639;50.716;7.086;2023-05-10T11:56:15;0.60;;;0.45;;
32130;SDS011;18639;50.716;7.086;2023-05-10T11:58:40;1.02;;;0.55;;
32130;SDS011;18639;50.716;7.086;2023-05-10T12:01:06;0.55;;;0.40;;
32130;SDS011;18639;50.716;7.086;2023-05-10T12:03:32;0.52;;;0.40;;
32130;SDS011;18639;50.716;7.086;2023-05-10T12:05:58;1.00;;;0.68;;
32130;SDS011;18639;50.716;7.086;2023-05-10T12:08:26;0.63;;;0.50;;
32130;SDS011;18639;50.716;7.086;2023-05-10T12:10:53;0.60;;;0.40;;
32130;SDS011;18639;50.716;7.086;2023-05-10T12:13:28;4.60;;;0.50;;
32130;SDS011;18639;50.716;7.086;2023-05-10T12:15:53;0.60;;;0.50;;
32130;SDS011;18639;50.716;7.086;2023-05-10T12:18:22;1.45;;;0.70;;
32130;SDS011;18639;50.716;7.086;2023-05-10T12:20:52;0.93;;;0.60;;
32130;SDS011;18639;50.716;7.086;2023-05-10T12:23:20;0.60;;;0.50;;
32130;SDS011;18639;50.716;7.086;2023-05-10T12:25:46;0.65;;;0.50;;
32130;SDS011;18639;50.716;7.086;2023-05-10T12:28:11;0.70;;;0.57;;
32130;SDS011;18639;50.716;7.086;2023-05-10T12:30:37;0.40;;;0.40;;
32130;SDS011;18639;50.716;7.086;2023-05-10T12:33:10;0.50;;;0.45;;
32130;SDS011;18639;50.716;7.086;2023-05-10T12:35:50;0.40;;;0.40;;
32130;SDS011;18639;50.716;7.086;2023-05-10T12:38:31;0.40;;;0.40;;
32130;SDS011;18639;50.716;7.086;2023-05-10T12:41:03;0.30;;;0.30;;
32130;SDS011;18639;50.716;7.086;2023-05-10T12:43:29;0.73;;;0.50;;
32130;SDS011;18639;50.716;7.086;2023-05-10T12:45:55;0.75;;;0.40;;
32130;SDS011;18639;50.716;7.086;2023-05-10T12:48:20;0.55;;;0.43;;
32130;SDS011;18639;50.716;7.086;2023-05-10T12:50:46;0.50;;;0.43;;
32130;SDS011;18639;50.716;7.086;2023-05-10T12:53:12;0.45;;;0.45;;
32130;SDS011;18639;50.716;7.086;2023-05-10T12:55:38;0.65;;;0.60;;
32130;SDS011;18639;50.716;7.086;2023-05-10T12:58:04;1.08;;;0.55;;
32130;SDS011;18639;50.716;7.086;2023-05-10T13:00:29;1.02;;;0.70;;
32130;SDS011;18639;50.716;7.086;2023-05-10T13:02:54;0.73;;;0.50;;
32130;SDS011;18639;50.716;7.086;2023-05-10T13:05:20;0.70;;;0.60;;
32130;SDS011;18639;50.716;7.086;2023-05-10T13:07:45;0.77;;;0.60;;
32130;SDS011;18639;50.716;7.086;2023-05-10T13:10:10;1.00;;;0.60;;
32130;SDS011;18639;50.716;7.086;2023-05-10T13:12:36;0.80;;;0.70;;
32130;SDS011;18639;50.716;7.086;2023-05-10T13:15:02;1.90;;;0.85;;
32130;SDS011;18639;50.716;7.086;2023-05-10T13:17:28;0.60;;;0.50;;
32130;SDS011;18639;50.716;7.086;2023-05-10T13:19:53;2.03;;;0.60;;
32130;SDS011;18639;50.716;7.086;2023-05-10T13:22:18;0.40;;;0.38;;
32130;SDS011;18639;50.716;7.086;2023-05-10T13:24:44;0.47;;;0.47;;
32130;SDS011;18639;50.716;7.086;2023-05-10T13:27:14;0.50;;;0.45;;
32130;SDS011;18639;50.716;7.086;2023-05-10T13:29:40;1.67;;;0.60;;
32130;SDS011;18639;50.716;7.086;2023-05-10T13:32:05;1.00;;;0.40;;
32130;SDS011;18639;50.716;7.086;2023-05-10T13:34:31;0.40;;;0.40;;
32130;SDS011;18639;50.716;7.086;2023-05-10T13:36:56;0.60;;;0.40;;
32130;SDS011;18639;50.716;7.086;2023-05-10T13:39:21;0.50;;;0.40;;
32130;SDS011;18639;50.716;7.086;2023-05-10T13:41:47;0.40;;;0.40;;
32130;SDS011;18639;50.716;7.086;2023-05-10T13:44:13;0.50;;;0.45;;
32130;SDS011;18639;50.716;7.086;2023-05-10T13:46:39;0.50;;;0.50;;
32130;SDS011;18639;50.716;7.086;2023-05-10T13:49:05;1.17;;;0.50;;
32130;SDS011;18639;50.716;7.086;2023-05-10T13:51:30;0.45;;;0.45;;
32130;SDS011;18639;50.716;7.086;2023-05-10T13:53:58;0.63;;;0.52;;
32130;SDS011;18639;50.716;7.086;2023-05-10T13:56:24;0.70;;;0.55;;
32130;SDS011;18639;50.716;7.086;2023-05-10T13:58:49;0.50;;;0.50;;
32130;SDS011;18639;50.716;7.086;2023-05-10T14:01:14;1.02;;;0.60;;
32130;SDS011;18639;50.716;7.086;2023-05-10T14:03:40;0.98;;;0.70;;
32130;SDS011;18639;50.716;7.086;2023-05-10T14:06:05;0.85;;;0.70;;
32130;SDS011;18639;50.716;7.086;2023-05-10T14:08:32;1.15;;;0.63;;
32130;SDS011;18639;50.716;7.086;2023-05-10T14:10:57;0.70;;;0.60;;
32130;SDS011;18639;50.716;7.086;2023-05-10T14:13:23;0.98;;;0.80;;
32130;SDS011;18639;50.716;7.086;2023-05-10T14:15:48;2.00;;;0.80;;
32130;SDS011;18639;50.716;7.086;2023-05-10T14:18:13;2.65;;;0.88;;
32130;SDS011;18639;50.716;7.086;2023-05-10T14:20:39;1.42;;;0.70;;
32130;SDS011;18639;50.716;7.086;2023-05-10T14:23:04;1.00;;;0.80;;
32130;SDS011;18639;50.716;7.086;2023-05-10T14:25:30;0.50;;;0.45;;
32130;SDS011;18639;50.716;7.086;2023-05-10T14:27:55;1.13;;;0.60;;
32130;SDS011;18639;50.716;7.086;2023-05-10T14:30:20;2.47;;;0.80;;
32130;SDS011;18639;50.716;7.086;2023-05-10T14:32:46;0.77;;;0.73;;
32130;SDS011;18639;50.716;7.086;2023-05-10T14:35:11;1.60;;;0.80;;
32130;SDS011;18639;50.716;7.086;2023-05-10T14:37:37;1.17;;;0.75;;
32130;SDS011;18639;50.716;7.086;2023-05-10T14:40:03;1.83;;;0.73;;
32130;SDS011;18639;50.716;7.086;2023-05-10T14:42:29;1.33;;;0.80;;
32130;SDS011;18639;50.716;7.086;2023-05-10T14:44:54;0.80;;;0.70;;
32130;SDS011;18639;50.716;7.086;2023-05-10T14:47:19;2.10;;;1.10;;
32130;SDS011;18639;50.716;7.086;2023-05-10T14:49:45;3.38;;;1.70;;
32130;SDS011;18639;50.716;7.086;2023-05-10T14:52:10;3.05;;;1.67;;
32130;SDS011;18639;50.716;7.086;2023-05-10T14:54:37;2.10;;;1.00;;
32130;SDS011;18639;50.716;7.086;2023-05-10T14:57:02;2.17;;;1.15;;
32130;SDS011;18639;50.716;7.086;2023-05-10T14:59:27;1.75;;;0.90;;
32130;SDS011;18639;50.716;7.086;2023-05-10T15:01:53;2.25;;;0.80;;
32130;SDS011;18639;50.716;7.086;2023-05-10T15:04:18;0.95;;;0.80;;
32130;SDS011;18639;50.716;7.086;2023-05-10T15:06:43;1.45;;;0.88;;
32130;SDS011;18639;50.716;7.086;2023-05-10T15:09:09;1.67;;;0.90;;
32130;SDS011;18639;50.716;7.086;2023-05-10T15:11:34;1.02;;;0.70;;
32130;SDS011;18639;50.716;7.086;2023-05-10T15:13:59;1.17;;;0.90;;